LTAG/ADF METAR and TAF weather

Enter ICAO airport designator
Station Type Date Time Source
LTAG METAR 2021/07/30 07:20 UTC NOAA

LTAG 300720Z 14005KT CAVOK 33/21 Q1003 NOSIG


Station Type Date Time Source
LTAG Decoded METAR 2021/07/30 07:20 UTC NOAA

Adana / Incirlik, Turkey (LTAG) 37-00N 035-25E 66M
Jul 30, 2021 - 03:20 AM EDT / 2021.07.30 0720 UTC
Wind: from the SE (140 degrees) at 6 MPH (5 KT):0
Visibility: greater than 7 mile(s):0
Temperature: 91 F (33 C)
Heat index: 96.1 F (35.6 C):1
Dew Point: 69 F (21 C)
Relative Humidity: 49%
Pressure (altimeter): 29.62 in. Hg (1003 hPa)
ob: LTAG 300720Z 14005KT CAVOK 33/21 Q1003 NOSIG
cycle: 7

Station Type Date Time Source
LTAG TAF 2021/07/30 06:03 UTC NOAA

TAF TAF LTAG 300440Z 3006/3106 VRB02KT CAVOK
BECMG 3010/3012 22012KT
BECMG 3016/3018 VRB02KT
TEMPO 3102/3104 5000 BR

Example: see airport list